»·PEaware :: N130F L52-L88

N130F :: L52-L88

FLIGHT INFORMATION

Flight Status: Arrived
Operator: Privately registered:
United States
More flights under this callsign
Pilot: David J. (24489)
Aircraft: CESSNA 172 SKYHAWK
(C172)
More flights by this aircraft type
Origin: L52 Oceano Co
United States
Destination: L88 New Cuyama
United States
More flights between these airports :: More routes between these airports
Route:
File this flight plan on PilotEdge
Remarks: CAT-1 Rating
Altitude:
(Current/Filed)
3,500ft
Speed:
(Current/Filed)
120kts
Departed: 30-Dec-19 01:18 PM
Arrived: 30-Dec-19 01:49 PM
Distance/Time
Traveled:
47nm/0:30
Distance/Time
To Go:
Arrived

Flight Plot

Page will automatically refresh every two minutes.


Map Options




Map Legend


Flown Route
Filed Route
Departure Airport
Arrival Airport
Navaid (VOR, NDB)
Fix

Horizontal Profiles

Position Reports

Time Latitude Longitude Heading Altitude Ground
Speed
30-Dec-19 13:03 35.102822 -120.623591 214 17ft 0kts
30-Dec-19 13:04 35.102822 -120.623591 214 17ft 0kts
30-Dec-19 13:05 35.102822 -120.623591 214 17ft 0kts
30-Dec-19 13:06 35.102822 -120.623591 214 17ft 0kts
30-Dec-19 13:07 35.102822 -120.623591 214 17ft 0kts
30-Dec-19 13:08 35.102822 -120.623591 214 17ft 0kts
30-Dec-19 13:09 35.102822 -120.623591 214 17ft 0kts
30-Dec-19 13:10 35.102774 -120.623645 239 17ft 0kts
30-Dec-19 13:11 35.102772 -120.623649 239 17ft 0kts
30-Dec-19 13:12 35.102770 -120.623653 239 17ft 0kts
30-Dec-19 13:13 35.102768 -120.623657 239 17ft 0kts
30-Dec-19 13:14 35.102766 -120.623662 239 17ft 0kts
30-Dec-19 13:15 35.103334 -120.624808 303 17ft 0kts
30-Dec-19 13:16 35.103338 -120.624817 303 17ft 0kts
30-Dec-19 13:17 35.101216 -120.621865 126 47ft 62kts
30-Dec-19 13:18 35.086344 -120.598219 125 837ft 104kts
30-Dec-19 13:19 35.070014 -120.566198 104 1575ft 110kts
30-Dec-19 13:20 35.065745 -120.530025 84 2175ft 110kts
30-Dec-19 13:21 35.067963 -120.493858 81 2862ft 93kts
30-Dec-19 13:22 35.070763 -120.464089 81 3550ft 107kts
30-Dec-19 13:23 35.068169 -120.427117 95 3541ft 108kts
30-Dec-19 13:24 35.062121 -120.390322 96 3549ft 113kts
30-Dec-19 13:25 35.055819 -120.353316 96 3538ft 105kts
30-Dec-19 13:26 35.050109 -120.319116 95 3542ft 101kts
30-Dec-19 13:27 35.043812 -120.284460 97 3553ft 111kts
30-Dec-19 13:28 35.036907 -120.247417 97 3537ft 109kts
30-Dec-19 13:29 35.030012 -120.210441 97 3506ft 115kts
30-Dec-19 13:30 35.023049 -120.172109 97 3497ft 115kts
30-Dec-19 13:31 35.016138 -120.134359 97 3493ft 112kts
30-Dec-19 13:32 35.032576 -120.109186 60 3491ft 103kts
30-Dec-19 13:33 35.044508 -120.076532 67 3769ft 98kts
30-Dec-19 13:34 35.054224 -120.046170 85 4626ft 93kts
30-Dec-19 13:35 35.053872 -120.018386 50 5470ft 90kts
30-Dec-19 13:36 35.069176 -119.987924 77 5483ft 115kts
30-Dec-19 13:37 35.073259 -119.950325 105 5558ft 106kts
30-Dec-19 13:38 35.064959 -119.918155 103 5130ft 95kts
30-Dec-19 13:39 35.053240 -119.889817 125 4629ft 95kts
30-Dec-19 13:40 35.034827 -119.863728 123 3963ft 109kts
30-Dec-19 13:41 35.015603 -119.837178 123 3486ft 86kts
30-Dec-19 13:42 34.998804 -119.822556 133 3489ft 64kts
30-Dec-19 13:43 34.984162 -119.808710 119 3421ft 105kts
30-Dec-19 13:44 34.971859 -119.773147 110 3098ft 102kts
30-Dec-19 13:45 34.962885 -119.742833 114 2923ft 77kts
30-Dec-19 13:46 34.952466 -119.716565 115 2566ft 80kts
30-Dec-19 13:47 34.944333 -119.696254 117 2284ft 60kts
30-Dec-19 13:48 34.940188 -119.686034 286 2206ft 5kts
30-Dec-19 13:49 34.942177 -119.690926 315 2206ft 17kts
30-Dec-19 13:50 34.942845 -119.690204 119 2206ft 0kts
30-Dec-19 13:51 34.942845 -119.690204 119 2206ft 0kts
30-Dec-19 13:52 34.942845 -119.690204 119 2206ft 0kts
30-Dec-19 13:53 34.942845 -119.690204 119 2206ft 0kts
30-Dec-19 13:54 34.942845 -119.690204 119 2206ft 0kts
30-Dec-19 13:55 34.942845 -119.690204 119 2206ft 0kts
30-Dec-19 13:56 34.942845 -119.690204 119 2206ft 0kts
30-Dec-19 13:57 34.942845 -119.690204 119 2206ft 0kts
30-Dec-19 13:58 34.942845 -119.690204 119 2206ft 0kts
30-Dec-19 13:59 34.942844 -119.690201 119 2206ft 0kts
30-Dec-19 14:00 34.942842 -119.690198 119 2206ft 0kts
30-Dec-19 14:01 34.942840 -119.690194 119 2206ft 0kts
30-Dec-19 14:02 34.942839 -119.690191 119 2206ft 0kts

Navigation Log

Ident Type
Flight plan parsing failed, navigation log unavailable